Adams, Oregon
Current Conditions -  °F | °C
As of 9:53 PM on Saturday 22 Nov 2014 (Local Time) from KPDT Reporting Station
Clear Clear  
Wind Chill: 32°   Ceiling: Unl
Heat Index: 42°   Visibility: 10mi
Dew Point: 32°   Wind: 28mph
Humidity: 67%   Direction: 260°W
Pressure: 30.06"   Gusts: NA
Location:  45.77°N, 118.56°W
Report Text: KPDT 230553Z AUTO 26024KT 10SM CLR 06/00 A3006 RMK AO2 PK WND 26033/0533 SLP181 T00560000 10067 20056 51031
Loading
Personal Weather Stations






























Interactive Weather Map New forecast layout! Learn more

10-Day Weather Forecast

Advertisements
Track Severe Weather on mobile